Time;durP1;ratioP1;P1;durP2;ratioP2;P2;SDS_P1;SDS_P2;PMS_P1;PMS_P2;Temp;Humidity;BMP_temperature;BMP_pressure;BME280_temperature;BME280_humidity;BME280_pressure;Samples;Min_cycle;Max_cycle;Signal;HPM_P1;HPM_P2
2023/07/13 00:00:33;;;;;;;9.48;6.10;;;;;;;26.68;57.04;98326.84;5091892;28;20176;-57
2023/07/13 00:02:58;;;;;;;7.15;6.03;;;;;;;26.62;56.73;98330.34;5091910;28;20179;-57
2023/07/13 00:05:24;;;;;;;7.85;6.45;;;;;;;26.43;57.21;98302.00;5068930;28;20878;-57
2023/07/13 00:07:50;;;;;;;6.40;5.80;;;;;;;26.49;57.50;98314.44;5069192;28;20640;-57
2023/07/13 00:10:17;;;;;;;8.27;6.35;;;;;;;26.57;57.28;98316.88;5069184;28;20190;-57
2023/07/13 00:12:43;;;;;;;8.02;6.50;;;;;;;26.58;57.65;98315.84;5069226;28;20311;-57
2023/07/13 00:15:20;;;;;;;5.75;5.25;;;;;;;26.54;57.37;98314.63;5069655;28;20200;-57
2023/07/13 00:17:47;;;;;;;7.82;5.88;;;;;;;26.46;57.61;98300.72;5072763;28;20185;-57
2023/07/13 00:20:12;;;;;;;7.18;5.57;;;;;;;26.62;56.84;98318.91;5072726;28;20196;-57
2023/07/13 00:22:38;;;;;;;6.45;5.85;;;;;;;26.62;57.01;98317.06;5072666;28;20184;-57
2023/07/13 00:25:04;;;;;;;7.95;5.78;;;;;;;26.75;56.42;98332.97;5072500;28;20208;-57
2023/07/13 00:27:31;;;;;;;16.38;6.03;;;;;;;26.72;56.39;98316.63;5072853;28;20238;-57
2023/07/13 00:29:57;;;;;;;6.20;5.60;;;;;;;26.72;58.04;98304.19;5072415;28;20185;-57
2023/07/13 00:32:25;;;;;;;5.93;5.32;;;;;;;26.75;59.26;98337.44;5072726;28;20275;-57
2023/07/13 00:34:50;;;;;;;9.73;5.55;;;;;;;26.73;58.85;98320.91;5072420;28;20184;-57
2023/07/13 00:37:16;;;;;;;7.32;5.90;;;;;;;26.68;59.51;98316.25;5089881;28;20187;-57
2023/07/13 00:39:41;;;;;;;8.82;5.97;;;;;;;26.61;58.25;98294.22;5092581;28;20184;-57
2023/07/13 00:42:07;;;;;;;6.78;6.07;;;;;;;26.68;58.29;98324.22;5092590;28;20183;-57
2023/07/13 00:44:32;;;;;;;10.27;6.30;;;;;;;26.47;58.84;98297.06;5092749;28;20183;-57
2023/07/13 00:46:58;;;;;;;7.50;5.78;;;;;;;26.43;59.69;98309.94;5092378;28;20762;-58
2023/07/13 00:49:27;;;;;;;7.95;5.28;;;;;;;26.32;60.19;98315.88;5092298;28;20206;-58
2023/07/13 00:52:02;;;;;;;7.32;5.32;;;;;;;26.00;62.46;98315.91;5092807;28;20667;-57
2023/07/13 00:54:36;;;;;;;6.35;5.35;;;;;;;25.87;63.63;98306.06;5094769;28;20163;-57
2023/07/13 00:57:07;;;;;;;6.38;5.82;;;;;;;26.08;60.57;98299.78;5094753;28;20613;-57
2023/07/13 00:59:36;;;;;;;7.65;5.53;;;;;;;26.07;60.00;98283.03;5094692;28;20182;-57
2023/07/13 01:02:03;;;;;;;6.13;5.22;;;;;;;26.16;59.25;98281.81;5071894;28;20192;-57
2023/07/13 01:04:28;;;;;;;5.70;5.05;;;;;;;26.18;59.54;98295.69;5051682;28;20242;-57
2023/07/13 01:06:54;;;;;;;5.40;4.90;;;;;;;26.03;59.04;98265.09;5051779;28;20221;-57
2023/07/13 01:09:20;;;;;;;6.22;5.63;;;;;;;26.23;58.89;98290.56;5051882;28;20266;-57
2023/07/13 01:11:46;;;;;;;7.65;5.30;;;;;;;26.24;58.58;98283.44;5051782;28;20191;-57
2023/07/13 01:14:12;;;;;;;7.57;5.78;;;;;;;26.23;58.78;98285.28;5051702;28;20268;-57
2023/07/13 01:16:40;;;;;;;7.93;5.68;;;;;;;26.16;58.81;98268.56;5051718;28;20223;-57
2023/07/13 01:19:38;;;;;;;5.55;5.05;;;;;;;26.30;58.33;98278.09;5051597;28;20177;-57
2023/07/13 01:22:11;;;;;;;6.65;5.90;;;;;;;26.28;58.40;98277.50;5030063;28;20186;-57
2023/07/13 01:24:38;;;;;;;5.80;5.25;;;;;;;26.29;58.40;98279.13;5031534;28;20321;-57
2023/07/13 01:27:06;;;;;;;6.32;5.72;;;;;;;26.31;58.15;98266.47;5031038;28;20277;-57
2023/07/13 01:29:33;;;;;;;6.68;5.88;;;;;;;26.23;58.41;98269.34;5031500;28;20201;-57
2023/07/13 01:31:59;;;;;;;6.53;5.90;;;;;;;26.16;58.80;98260.59;5031430;28;20194;-57
2023/07/13 01:34:26;;;;;;;6.90;5.50;;;;;;;26.03;59.23;98257.97;5032739;28;20292;-57
2023/07/13 01:36:53;;;;;;;6.45;5.82;;;;;;;25.85;59.98;98243.66;5051322;28;20246;-57
2023/07/13 01:39:20;;;;;;;6.07;5.47;;;;;;;26.01;60.01;98265.28;5060008;28;20215;-57
2023/07/13 01:41:46;;;;;;;8.18;5.40;;;;;;;25.85;59.12;98236.53;5071137;28;20197;-57
2023/07/13 01:44:11;;;;;;;6.15;5.45;;;;;;;25.93;59.63;98256.72;5071195;28;20651;-57
2023/07/13 01:46:36;;;;;;;6.88;5.15;;;;;;;25.81;60.04;98279.56;5071090;28;20208;-57
2023/07/13 01:49:02;;;;;;;7.03;5.03;;;;;;;25.67;59.39;98257.50;5070958;28;20192;-57
2023/07/13 01:51:27;;;;;;;7.45;5.47;;;;;;;25.88;59.09;98285.66;5050926;28;20691;-57
2023/07/13 01:53:52;;;;;;;5.63;5.03;;;;;;;25.65;59.02;98269.38;5066552;28;20216;-57
2023/07/13 01:56:18;;;;;;;5.93;5.00;;;;;;;25.80;59.01;98273.44;5070895;28;20188;-57
2023/07/13 01:58:45;;;;;;;7.30;4.97;;;;;;;25.81;59.03;98267.13;5070895;28;20326;-57
2023/07/13 02:01:10;;;;;;;5.70;5.05;;;;;;;25.93;59.71;98294.69;5070706;28;20734;-57
2023/07/13 02:03:36;;;;;;;7.68;5.80;;;;;;;25.89;60.05;98304.03;5070806;28;20276;-57
2023/07/13 02:06:01;;;;;;;5.32;4.93;;;;;;;25.84;59.65;98295.84;5070682;28;20298;-57
2023/07/13 02:08:27;;;;;;;8.82;5.30;;;;;;;25.63;60.04;98274.88;5050537;28;20295;-57
2023/07/13 02:10:52;;;;;;;5.78;5.28;;;;;;;25.55;60.84;98284.84;5050569;28;20593;-57
2023/07/13 02:13:18;;;;;;;7.18;5.95;;;;;;;25.58;61.05;98317.06;5010803;28;20178;-57
2023/07/13 02:15:43;;;;;;;6.97;5.20;;;;;;;25.53;61.25;98303.59;5010943;28;20194;-57
2023/07/13 02:18:09;;;;;;;8.20;5.72;;;;;;;25.33;61.85;98280.72;5010833;28;20788;-57
2023/07/13 02:20:35;;;;;;;7.03;5.22;;;;;;;25.31;62.10;98294.16;5010890;28;20182;-57
2023/07/13 02:23:00;;;;;;;6.00;5.40;;;;;;;25.40;61.62;98303.56;5025223;28;20252;-57
2023/07/13 02:25:26;;;;;;;5.68;5.15;;;;;;;25.21;62.12;98291.06;5030400;28;20696;-57
2023/07/13 02:27:52;;;;;;;7.25;5.55;;;;;;;25.41;61.90;98314.97;5030314;28;20194;-57
2023/07/13 02:30:18;;;;;;;6.57;5.40;;;;;;;25.33;61.11;98292.16;5030706;28;20232;-57
2023/07/13 02:32:44;;;;;;;5.82;5.22;;;;;;;25.50;61.77;98322.56;5030407;28;20185;-57
2023/07/13 02:35:09;;;;;;;5.40;4.90;;;;;;;25.53;61.14;98314.19;5030292;28;20552;-57
2023/07/13 02:37:35;;;;;;;7.00;5.32;;;;;;;25.58;61.56;98330.31;5030344;28;20750;-57
2023/07/13 02:40:02;;;;;;;6.57;5.80;;;;;;;25.41;64.11;98313.16;5024382;28;20201;-57
2023/07/13 02:42:28;;;;;;;7.75;5.75;;;;;;;25.17;67.35;98308.38;5030167;28;20189;-57
2023/07/13 02:44:53;;;;;;;6.43;5.70;;;;;;;25.13;67.37;98301.84;5030063;28;20568;-57
2023/07/13 02:47:21;;;;;;;8.23;5.80;;;;;;;25.27;65.33;98323.91;5030093;28;20192;-57
2023/07/13 02:49:46;;;;;;;6.70;5.32;;;;;;;25.18;64.20;98323.25;5030066;28;20205;-57
2023/07/13 02:52:12;;;;;;;5.88;5.38;;;;;;;25.06;64.13;98316.88;5010174;28;20194;-57
2023/07/13 02:54:37;;;;;;;5.95;5.25;;;;;;;25.09;64.21;98318.31;4990515;28;20191;-58
2023/07/13 02:57:03;;;;;;;6.55;5.68;;;;;;;25.16;64.34;98327.94;4990568;28;20195;-57
2023/07/13 02:59:28;;;;;;;7.32;5.65;;;;;;;25.13;63.52;98301.84;4990883;28;20254;-57
2023/07/13 03:01:54;;;;;;;7.13;5.07;;;;;;;25.22;63.39;98321.84;4990591;28;20183;-58
2023/07/13 03:04:19;;;;;;;6.00;5.40;;;;;;;25.18;63.10;98320.59;4990496;28;20278;-57
2023/07/13 03:06:45;;;;;;;7.15;5.50;;;;;;;25.01;63.54;98298.13;4990560;28;20211;-57
2023/07/13 03:09:12;;;;;;;5.50;5.00;;;;;;;25.06;63.22;98294.88;4990771;28;20187;-56
2023/07/13 03:11:38;;;;;;;6.03;5.50;;;;;;;25.01;63.43;98313.22;5035629;28;20185;-57
2023/07/13 03:14:03;;;;;;;7.43;5.40;;;;;;;25.06;63.28;98303.66;5049712;28;20194;-56
2023/07/13 03:16:29;;;;;;;7.05;5.20;;;;;;;25.10;63.64;98310.19;5049710;28;20188;-56
2023/07/13 03:18:54;;;;;;;7.32;5.50;;;;;;;25.08;63.39;98304.25;5049614;28;20737;-57
2023/07/13 03:21:20;;;;;;;5.95;5.20;;;;;;;25.03;63.12;98282.84;5049654;28;20185;-56
2023/07/13 03:23:46;;;;;;;4.93;4.53;;;;;;;25.06;62.83;98290.41;5064464;28;20275;-57
2023/07/13 03:26:14;;;;;;;7.28;5.40;;;;;;;25.14;63.52;98310.59;5086372;28;20214;-57
2023/07/13 03:28:41;;;;;;;8.18;5.65;;;;;;;25.24;63.40;98311.88;5091911;28;20258;-56
2023/07/13 03:31:12;;;;;;;7.97;5.72;;;;;;;25.17;63.49;98310.19;5092100;28;20199;-56
2023/07/13 03:33:38;;;;;;;10.95;5.85;;;;;;;25.10;65.64;98296.94;5092179;28;20634;-56
2023/07/13 03:36:10;;;;;;;7.10;5.97;;;;;;;25.15;65.64;98285.75;5092085;28;20225;-57
2023/07/13 03:38:35;;;;;;;7.30;6.00;;;;;;;25.16;64.25;98293.50;5092131;28;20205;-56
2023/07/13 03:41:01;;;;;;;6.70;5.55;;;;;;;25.25;63.49;98304.75;5092062;28;20264;-56
2023/07/13 03:43:26;;;;;;;8.20;6.13;;;;;;;25.14;64.13;98286.78;5091744;28;20182;-57
2023/07/13 03:45:52;;;;;;;6.70;5.57;;;;;;;25.21;63.67;98283.13;5091935;28;20202;-57
2023/07/13 03:48:17;;;;;;;6.53;5.93;;;;;;;25.42;63.44;98301.53;5069054;28;20230;-57
2023/07/13 03:50:43;;;;;;;6.43;5.30;;;;;;;25.45;61.92;98301.16;5070948;28;20191;-57
2023/07/13 03:53:09;;;;;;;6.28;5.50;;;;;;;25.43;61.76;98289.91;5073246;28;20227;-57
2023/07/13 03:55:34;;;;;;;6.22;5.10;;;;;;;25.54;61.39;98291.97;5073218;28;20191;-57
2023/07/13 03:58:21;;;;;;;5.32;4.82;;;;;;;25.74;61.29;98313.19;5053015;28;20185;-57
2023/07/13 04:00:46;;;;;;;6.25;5.63;;;;;;;25.58;61.82;98293.22;5052974;28;20184;-57
2023/07/13 04:03:12;;;;;;;6.40;4.93;;;;;;;25.73;60.86;98285.06;5053040;28;20196;-56
2023/07/13 04:05:40;;;;;;;7.28;5.20;;;;;;;25.79;60.81;98300.97;5053130;28;20216;-57
2023/07/13 04:08:05;;;;;;;6.95;5.13;;;;;;;25.85;59.84;98276.31;5052871;28;20342;-57
2023/07/13 04:10:31;;;;;;;10.00;5.18;;;;;;;25.99;59.78;98288.56;5052984;28;20458;-57
2023/07/13 04:12:56;;;;;;;5.78;5.28;;;;;;;25.98;59.83;98280.81;5052831;28;20185;-57
2023/07/13 04:15:22;;;;;;;4.90;4.50;;;;;;;26.19;59.01;98304.47;5052826;28;20181;-57
2023/07/13 04:17:47;;;;;;;5.55;4.72;;;;;;;26.23;58.60;98306.50;5032971;28;20201;-57
2023/07/13 04:20:12;;;;;;;6.65;5.50;;;;;;;26.19;58.56;98299.16;5032776;28;20277;-57
2023/07/13 04:22:38;;;;;;;5.70;5.15;;;;;;;26.13;59.07;98290.16;5033034;28;20186;-57
2023/07/13 04:25:05;;;;;;;5.78;5.18;;;;;;;26.30;59.44;98322.41;5032625;28;20699;-57
2023/07/13 04:27:30;;;;;;;6.45;5.55;;;;;;;26.26;60.08;98311.41;5032638;28;20571;-57
2023/07/13 04:29:56;;;;;;;6.10;5.45;;;;;;;26.39;60.22;98319.34;5050240;28;20181;-57
2023/07/13 04:32:21;;;;;;;7.30;5.63;;;;;;;26.56;60.35;98331.19;5052494;28;20189;-57
2023/07/13 04:34:46;;;;;;;6.13;5.50;;;;;;;26.56;60.02;98317.91;5052484;28;20268;-56
2023/07/13 04:37:12;;;;;;;7.72;5.47;;;;;;;26.79;59.40;98344.81;5052441;28;20191;-56
2023/07/13 04:39:37;;;;;;;6.10;5.47;;;;;;;26.77;59.19;98328.25;5052346;28;20635;-57
2023/07/13 04:42:04;;;;;;;5.68;5.10;;;;;;;26.77;58.52;98340.72;5052163;28;20230;-57
2023/07/13 04:44:29;;;;;;;8.30;5.35;;;;;;;26.87;58.88;98346.44;5052140;28;20193;-57
2023/07/13 04:46:55;;;;;;;6.32;5.70;;;;;;;27.05;58.44;98365.16;5051714;28;20217;-57
2023/07/13 04:49:20;;;;;;;5.50;5.00;;;;;;;26.94;58.58;98348.00;5081698;28;20261;-57
2023/07/13 04:51:46;;;;;;;9.07;6.22;;;;;;;26.98;58.56;98345.75;5092407;28;20190;-57
2023/07/13 04:54:11;;;;;;;6.50;5.45;;;;;;;27.08;58.24;98354.91;5092412;28;20630;-57
2023/07/13 04:56:36;;;;;;;7.72;5.03;;;;;;;26.99;58.06;98334.13;5092589;28;20290;-57
2023/07/13 04:59:02;;;;;;;6.43;5.15;;;;;;;27.02;57.09;98323.06;5071913;28;20192;-57
2023/07/13 05:01:27;;;;;;;6.00;5.22;;;;;;;27.20;56.60;98339.97;5056843;28;20185;-57
2023/07/13 05:03:52;;;;;;;7.35;5.15;;;;;;;27.28;56.46;98325.66;5051928;28;20185;-57
2023/07/13 05:06:18;;;;;;;9.45;5.03;;;;;;;27.45;57.00;98334.72;5051866;28;20219;-57
2023/07/13 05:08:43;;;;;;;8.43;5.18;;;;;;;27.65;56.97;98352.19;5051819;28;20268;-57
2023/07/13 05:11:09;;;;;;;8.75;6.32;;;;;;;27.68;57.67;98335.81;5051856;28;20181;-57
2023/07/13 05:13:34;;;;;;;9.68;7.10;;;;;;;27.98;57.45;98363.47;5051787;28;20750;-58
2023/07/13 05:16:02;;;;;;;11.52;7.93;;;;;;;28.10;57.22;98368.91;5051767;28;20191;-57
2023/07/13 05:18:28;;;;;;;13.40;8.07;;;;;;;28.21;56.90;98363.69;5051742;28;20276;-58
2023/07/13 05:21:05;;;;;;;16.73;8.27;;;;;;;28.23;56.72;98356.28;5051682;28;20260;-58
2023/07/13 05:23:32;;;;;;;13.63;8.52;;;;;;;28.21;56.81;98341.59;5051496;28;20209;-57
2023/07/13 05:25:58;;;;;;;13.70;8.23;;;;;;;28.42;56.12;98360.69;5051443;28;20676;-57
2023/07/13 05:28:23;;;;;;;11.98;8.10;;;;;;;28.49;56.16;98361.44;5051500;28;20190;-57
2023/07/13 05:30:50;;;;;;;12.73;8.40;;;;;;;28.51;55.78;98346.03;5086653;28;20266;-57
2023/07/13 05:33:16;;;;;;;10.13;7.40;;;;;;;28.54;55.92;98345.59;5094089;28;20703;-57
2023/07/13 05:35:41;;;;;;;10.98;8.45;;;;;;;28.75;55.14;98366.47;5093887;28;20179;-57
2023/07/13 05:38:06;;;;;;;10.65;7.40;;;;;;;28.78;54.93;98366.06;5071130;28;20186;-57
2023/07/13 05:40:32;;;;;;;11.13;7.80;;;;;;;28.76;55.29;98346.81;5071159;28;20216;-57
2023/07/13 05:42:58;;;;;;;13.27;7.60;;;;;;;28.92;55.09;98362.19;5071097;28;20188;-57
2023/07/13 05:45:23;;;;;;;6.93;5.82;;;;;;;28.83;55.20;98336.06;5050926;28;20692;-57
2023/07/13 05:47:48;;;;;;;6.90;5.35;;;;;;;28.94;54.91;98357.47;5050958;28;20197;-57
2023/07/13 05:50:14;;;;;;;7.35;5.18;;;;;;;28.94;54.86;98357.47;5051137;28;20185;-58
2023/07/13 05:52:39;;;;;;;6.28;4.95;;;;;;;28.88;54.53;98349.53;5070871;28;20191;-56
2023/07/13 05:55:05;;;;;;;9.48;6.13;;;;;;;28.91;54.81;98354.44;5070885;28;20192;-57
2023/07/13 05:57:31;;;;;;;11.80;5.95;;;;;;;29.12;54.83;98354.00;5070888;28;20185;-57
2023/07/13 05:59:57;;;;;;;10.98;5.63;;;;;;;29.17;54.61;98354.16;5070771;28;20189;-57
2023/07/13 06:02:22;;;;;;;13.82;8.38;;;;;;;29.26;54.10;98361.63;5070736;28;20241;-57
2023/07/13 06:04:47;;;;;;;13.25;8.45;;;;;;;29.34;54.58;98366.66;5070651;28;20194;-57
2023/07/13 06:07:13;;;;;;;12.93;8.18;;;;;;;29.41;54.57;98356.72;5070483;28;20180;-57
2023/07/13 06:09:38;;;;;;;15.50;7.78;;;;;;;29.40;54.06;98357.75;5070830;28;20189;-57
2023/07/13 06:12:04;;;;;;;13.40;8.00;;;;;;;29.35;54.67;98338.13;5070587;28;20185;-57
2023/07/13 06:14:30;;;;;;;10.75;7.35;;;;;;;29.65;53.83;98361.13;5070404;28;20560;-57
2023/07/13 06:16:55;;;;;;;10.32;6.95;;;;;;;29.74;53.38;98356.28;5085268;28;20186;-57
2023/07/13 06:19:21;;;;;;;15.00;8.43;;;;;;;29.71;53.45;98349.56;5090792;28;20533;-57
2023/07/13 06:21:46;;;;;;;12.25;7.65;;;;;;;29.68;53.59;98341.19;5090744;28;20184;-57
2023/07/13 06:24:12;;;;;;;8.68;6.55;;;;;;;29.74;53.16;98350.94;5090638;28;20187;-58
2023/07/13 06:26:37;;;;;;;9.80;7.40;;;;;;;29.68;53.52;98331.31;5090554;28;20212;-58
2023/07/13 06:29:02;;;;;;;9.63;6.38;;;;;;;29.92;52.63;98354.38;5089082;28;20172;-57
2023/07/13 06:31:28;;;;;;;17.13;7.05;;;;;;;29.81;53.00;98323.13;5070311;28;20176;-58
2023/07/13 06:33:53;;;;;;;18.67;7.95;;;;;;;29.83;53.08;98339.72;5070230;28;20693;-58
2023/07/13 06:36:19;;;;;;;16.50;8.00;;;;;;;29.95;53.59;98345.06;5070231;28;20218;-57
2023/07/13 06:38:44;;;;;;;18.42;8.85;;;;;;;30.12;54.10;98360.22;5086410;28;20270;-57
2023/07/13 06:41:10;;;;;;;21.10;9.10;;;;;;;30.06;54.57;98338.94;5092692;28;20553;-58
2023/07/13 06:43:35;;;;;;;18.13;8.73;;;;;;;30.28;54.17;98362.22;5092727;28;20614;-57
2023/07/13 06:46:01;;;;;;;20.85;9.93;;;;;;;30.28;54.64;98348.88;5092659;28;20197;-57
2023/07/13 06:48:27;;;;;;;11.23;8.52;;;;;;;30.39;54.42;98361.44;5092638;28;20189;-58
2023/07/13 06:50:53;;;;;;;13.50;9.35;;;;;;;30.47;53.93;98363.75;5092300;28;20186;-58
2023/07/13 06:53:19;;;;;;;19.58;9.13;;;;;;;30.56;53.71;98353.53;5092612;28;20262;-58
2023/07/13 06:55:45;;;;;;;16.98;9.48;;;;;;;30.55;54.02;98347.34;5092548;28;20179;-58
2023/07/13 06:58:11;;;;;;;14.15;9.27;;;;;;;30.59;53.37;98329.81;5092598;28;20175;-57
2023/07/13 07:00:36;;;;;;;17.20;8.70;;;;;;;30.77;53.34;98358.31;5049756;28;20323;-57
2023/07/13 07:03:02;;;;;;;12.18;8.90;;;;;;;30.82;52.90;98351.22;5049867;28;20204;-58
2023/07/13 07:05:27;;;;;;;12.85;8.77;;;;;;;30.91;52.79;98354.34;5049751;28;20698;-58
2023/07/13 07:07:55;;;;;;;16.65;9.48;;;;;;;30.80;52.66;98329.25;5049830;28;20211;-57
2023/07/13 07:10:21;;;;;;;14.50;8.60;;;;;;;30.95;52.26;98356.28;5049810;28;20193;-57
2023/07/13 07:12:46;;;;;;;14.45;8.68;;;;;;;31.00;52.44;98344.88;5049790;28;20238;-58
2023/07/13 07:15:12;;;;;;;14.20;8.68;;;;;;;31.14;51.84;98360.41;5049731;28;20606;-58
2023/07/13 07:17:37;;;;;;;16.92;8.82;;;;;;;31.14;51.77;98344.38;5049572;28;20193;-58
2023/07/13 07:20:04;;;;;;;14.20;7.97;;;;;;;31.27;52.06;98354.84;5049587;28;20192;-58
2023/07/13 07:22:30;;;;;;;14.35;8.25;;;;;;;31.29;51.41;98349.25;5049607;28;20717;-58
2023/07/13 07:24:56;;;;;;;13.85;8.55;;;;;;;31.33;51.02;98347.72;5049969;28;20558;-58
2023/07/13 07:27:22;;;;;;;15.02;8.07;;;;;;;31.48;51.56;98361.41;5033582;28;20727;-57
2023/07/13 07:29:48;;;;;;;13.98;7.20;;;;;;;31.44;50.71;98342.34;5033740;28;20268;-58
2023/07/13 07:32:13;;;;;;;11.07;8.15;;;;;;;31.59;50.38;98369.38;5049248;28;20683;-60
2023/07/13 07:34:39;;;;;;;15.02;8.85;;;;;;;31.52;50.36;98344.63;5053648;28;20177;-58
2023/07/13 07:37:05;;;;;;;12.07;7.90;;;;;;;31.72;50.48;98366.44;5053583;28;20644;-58
2023/07/13 07:39:30;;;;;;;16.92;8.50;;;;;;;31.74;49.52;98359.00;5053562;28;20690;-58
2023/07/13 07:41:56;;;;;;;12.77;8.10;;;;;;;31.80;49.90;98365.22;5053395;28;20189;-58
2023/07/13 07:44:22;;;;;;;16.48;8.98;;;;;;;31.80;49.37;98355.34;5053345;28;20725;-57
2023/07/13 07:46:48;;;;;;;18.13;9.73;;;;;;;31.90;48.79;98365.41;5053329;28;20208;-59
2023/07/13 07:49:13;;;;;;;10.52;8.65;;;;;;;31.81;49.30;98356.97;5057959;28;20205;-57
2023/07/13 07:51:39;;;;;;;14.50;8.82;;;;;;;31.90;49.44;98368.94;5053382;28;20192;-57
2023/07/13 07:54:05;;;;;;;14.65;8.70;;;;;;;31.91;49.66;98357.16;5053213;28;20181;-57
2023/07/13 07:56:31;;;;;;;16.27;8.90;;;;;;;31.93;50.41;98371.09;5053308;28;20235;-57
2023/07/13 07:58:56;;;;;;;13.23;9.90;;;;;;;31.67;50.06;98347.59;5053219;28;20185;-57
2023/07/13 08:01:22;;;;;;;18.33;9.70;;;;;;;31.64;50.50;98361.44;5053110;28;20190;-57
2023/07/13 08:03:47;;;;;;;18.73;10.15;;;;;;;31.61;51.51;98367.28;5053145;28;20710;-57
2023/07/13 08:06:13;;;;;;;16.35;8.98;;;;;;;31.67;51.70;98363.66;5053143;28;20205;-57
2023/07/13 08:08:39;;;;;;;15.38;9.52;;;;;;;31.75;51.22;98357.94;5053094;28;20192;-57
2023/07/13 08:11:08;;;;;;;16.75;9.68;;;;;;;31.90;50.17;98368.94;5052943;28;20572;-57
2023/07/13 08:13:34;;;;;;;18.27;9.55;;;;;;;31.85;50.92;98328.69;5052885;28;20189;-57
2023/07/13 08:16:00;;;;;;;19.13;8.85;;;;;;;32.11;50.70;98357.47;5052722;28;20656;-57
2023/07/13 08:18:25;;;;;;;24.90;10.30;;;;;;;32.09;50.05;98343.53;5052819;28;20193;-57
2023/07/13 08:20:51;;;;;;;15.32;10.63;;;;;;;32.24;50.02;98356.34;5052770;28;20193;-57
2023/07/13 08:23:17;;;;;;;20.08;10.25;;;;;;;32.23;49.76;98355.53;5052770;28;20185;-57
2023/07/13 08:25:42;;;;;;;17.98;9.65;;;;;;;32.20;49.35;98329.25;5054948;28;20217;-57
2023/07/13 08:28:08;;;;;;;15.43;8.65;;;;;;;32.30;48.71;98328.63;5072679;28;20173;-57
2023/07/13 08:30:33;;;;;;;12.90;9.35;;;;;;;32.49;47.77;98360.28;5072605;28;20589;-57
2023/07/13 08:32:59;;;;;;;17.02;9.68;;;;;;;32.56;48.21;98347.50;5072864;28;20176;-57
2023/07/13 08:35:25;;;;;;;18.75;10.75;;;;;;;32.59;48.54;98351.56;5072571;28;20322;-57
2023/07/13 08:37:51;;;;;;;20.10;9.82;;;;;;;32.51;48.29;98331.34;5071197;28;20654;-57
2023/07/13 08:40:18;;;;;;;11.98;9.18;;;;;;;32.67;48.33;98341.25;5032360;28;20248;-57
2023/07/13 08:42:59;;;;;;;14.98;9.35;;;;;;;32.74;48.02;98338.38;5032425;28;20190;-57
2023/07/13 08:45:46;;;;;;;19.75;9.65;;;;;;;32.70;46.59;98330.00;5032262;28;20264;-57
2023/07/13 08:48:18;;;;;;;17.60;8.88;;;;;;;32.64;46.33;98330.19;5032289;28;20189;-57
2023/07/13 08:51:02;;;;;;;11.20;8.35;;;;;;;32.66;46.46;98334.25;5032689;28;20229;-57
2023/07/13 08:53:38;;;;;;;12.23;8.88;;;;;;;32.75;46.27;98343.47;5032366;28;20190;-57
2023/07/13 08:56:09;;;;;;;12.65;8.55;;;;;;;32.93;44.54;98345.91;5032300;28;20272;-57
2023/07/13 08:58:36;;;;;;;12.50;8.35;;;;;;;33.03;44.21;98346.03;5032490;28;20173;-57
2023/07/13 09:01:14;;;;;;;12.48;9.20;;;;;;;33.07;44.15;98339.13;5032427;28;20205;-57
2023/07/13 09:03:59;;;;;;;16.90;8.57;;;;;;;33.08;45.65;98321.13;5032128;28;20239;-57
2023/07/13 09:06:45;;;;;;;16.67;9.02;;;;;;;33.10;45.52;98302.94;5032013;28;20205;-57
2023/07/13 09:09:41;;;;;;;11.77;9.00;;;;;;;33.30;45.41;98320.09;5032090;28;20166;-57
2023/07/13 09:12:31;;;;;;;15.82;8.95;;;;;;;33.54;46.02;98324.13;5084760;28;20183;-57
2023/07/13 09:14:59;;;;;;;14.38;9.10;;;;;;;33.54;45.00;98308.00;5094736;28;20182;-57
2023/07/13 09:17:33;;;;;;;17.70;8.38;;;;;;;33.65;45.00;98307.06;5094356;28;20548;-57
2023/07/13 09:20:21;;;;;;;14.50;8.27;;;;;;;33.81;45.76;98313.41;5094391;28;20163;-57
2023/07/13 09:22:47;;;;;;;14.50;8.63;;;;;;;33.82;46.01;98305.09;5094061;28;20164;-57
2023/07/13 09:25:33;;;;;;;14.88;9.23;;;;;;;33.96;46.13;98311.66;5094165;28;20262;-57
2023/07/13 09:28:12;;;;;;;15.52;8.50;;;;;;;33.98;47.04;98296.06;5071469;28;20188;-57
2023/07/13 09:30:43;;;;;;;10.27;7.82;;;;;;;34.04;46.75;98292.34;5071582;28;20230;-57
2023/07/13 09:33:09;;;;;;;13.55;8.30;;;;;;;34.26;45.91;98311.91;5071538;28;20238;-57
2023/07/13 09:35:35;;;;;;;13.38;8.00;;;;;;;34.14;45.50;98284.38;5071432;28;20184;-57
2023/07/13 09:38:22;;;;;;;9.95;8.10;;;;;;;34.20;45.46;98277.97;5071294;28;20203;-57
2023/07/13 09:41:08;;;;;;;9.13;7.70;;;;;;;34.53;44.33;98301.88;5071454;28;20176;-57
2023/07/13 09:43:34;;;;;;;17.15;8.13;;;;;;;34.55;44.45;98285.50;5071218;28;20617;-57
2023/07/13 09:46:00;;;;;;;9.15;7.20;;;;;;;34.63;43.57;98299.22;5071145;28;20310;-57
2023/07/13 09:48:32;;;;;;;8.27;7.57;;;;;;;34.66;43.07;98290.66;5070494;28;20254;-57
2023/07/13 09:51:10;;;;;;;11.52;7.65;;;;;;;34.77;42.71;98288.84;5070982;28;20200;-58
2023/07/13 09:53:40;;;;;;;8.27;7.15;;;;;;;34.77;42.00;98278.06;5070844;28;20662;-57
2023/07/13 09:56:19;;;;;;;12.95;7.70;;;;;;;34.89;42.78;98284.88;5070967;28;20184;-57
2023/07/13 09:58:44;;;;;;;12.05;7.90;;;;;;;34.95;40.97;98270.38;5079675;28;20230;-58
2023/07/13 10:01:10;;;;;;;8.10;7.28;;;;;;;34.96;40.35;98266.59;5091105;28;20662;-58
2023/07/13 10:03:37;;;;;;;8.60;7.75;;;;;;;35.11;39.01;98274.72;5091090;28;20186;-58
2023/07/13 10:06:18;;;;;;;11.20;6.70;;;;;;;35.20;38.98;98270.44;5090882;28;20776;-58
2023/07/13 10:08:47;;;;;;;9.95;5.88;;;;;;;35.17;39.71;98236.00;5050623;28;20217;-57
2023/07/13 10:11:20;;;;;;;7.47;6.32;;;;;;;35.39;39.28;98247.38;5050622;28;20189;-58
2023/07/13 10:13:48;;;;;;;7.97;6.22;;;;;;;35.57;38.94;98254.09;5050631;28;20223;-57
2023/07/13 10:16:15;;;;;;;9.52;6.00;;;;;;;35.54;38.50;98217.75;5050609;28;20188;-57
2023/07/13 10:18:50;;;;;;;10.75;6.35;;;;;;;35.84;36.98;98252.78;4991177;28;20270;-58
2023/07/13 10:21:21;;;;;;;13.43;7.07;;;;;;;35.84;37.01;98227.75;4987109;28;20278;-58
2023/07/13 10:23:58;;;;;;;7.85;6.22;;;;;;;35.91;36.41;98218.28;4975160;28;20191;-58
2023/07/13 10:26:31;;;;;;;11.10;5.32;;;;;;;36.15;35.34;98230.16;4991219;28;20253;-58
2023/07/13 10:29:01;;;;;;;7.93;6.03;;;;;;;36.18;34.35;98226.91;4991223;28;20191;-58
2023/07/13 10:31:26;;;;;;;7.00;5.65;;;;;;;36.24;34.80;98211.56;4991175;28;20262;-58
2023/07/13 10:33:52;;;;;;;7.10;5.30;;;;;;;36.54;34.86;98227.63;4991181;28;20615;-58
2023/07/13 10:36:18;;;;;;;9.32;6.35;;;;;;;36.62;33.90;98241.34;4991119;28;20175;-58
2023/07/13 10:38:46;;;;;;;7.57;5.90;;;;;;;36.75;33.86;98235.38;4994582;28;20187;-58
2023/07/13 10:41:17;;;;;;;6.93;5.25;;;;;;;36.85;32.92;98238.06;5030347;28;20210;-58
2023/07/13 10:43:50;;;;;;;7.47;5.57;;;;;;;36.81;32.36;98247.78;5030371;28;20593;-58
2023/07/13 10:46:19;;;;;;;7.90;5.53;;;;;;;36.84;31.66;98235.63;5030215;28;20214;-58
2023/07/13 10:48:49;;;;;;;9.38;5.50;;;;;;;37.04;31.41;98247.13;5038134;28;20201;-58
2023/07/13 10:51:17;;;;;;;6.43;5.50;;;;;;;37.16;31.30;98236.81;5092694;28;20221;-58
2023/07/13 10:53:43;;;;;;;7.15;5.03;;;;;;;37.39;32.16;98238.84;5090170;28;20199;-58
2023/07/13 10:56:29;;;;;;;12.40;5.03;;;;;;;37.51;30.51;98220.38;5090250;28;20183;-58
2023/07/13 10:59:15;;;;;;;12.35;5.25;;;;;;;37.91;28.78;98244.38;5090510;28;20229;-58
2023/07/13 11:01:49;;;;;;;7.88;4.55;;;;;;;38.14;29.81;98257.19;5089799;28;20665;-58
2023/07/13 11:04:15;;;;;;;7.85;5.07;;;;;;;38.31;29.39;98244.03;5090098;28;20242;-58
2023/07/13 11:06:44;;;;;;;10.90;4.65;;;;;;;38.34;28.26;98242.66;5090125;28;20195;-58
2023/07/13 11:09:36;;;;;;;8.48;5.18;;;;;;;38.36;29.01;98245.88;5090066;28;20185;-58
2023/07/13 11:12:47;;;;;;;7.55;4.90;;;;;;;38.48;28.09;98246.28;5069696;28;20192;-58
2023/07/13 11:15:14;;;;;;;5.10;4.35;;;;;;;38.54;28.72;98215.38;5069502;28;20180;-58
2023/07/13 11:17:58;;;;;;;11.15;4.97;;;;;;;38.86;27.58;98238.00;5069751;28;20737;-58
2023/07/13 11:20:32;;;;;;;9.98;5.00;;;;;;;38.80;27.43;98227.53;5069701;28;20285;-59
2023/07/13 11:23:31;;;;;;;6.30;5.00;;;;;;;38.96;27.75;98232.47;5069815;28;20173;-58
2023/07/13 11:25:57;;;;;;;7.28;4.97;;;;;;;39.10;27.91;98233.34;4951530;29;20221;-58
2023/07/13 11:28:25;;;;;;;9.25;5.20;;;;;;;39.12;28.41;98220.34;4951535;29;20192;-58
2023/07/13 11:30:55;;;;;;;7.38;5.03;;;;;;;39.37;27.64;98238.94;4951732;29;20671;-58
2023/07/13 11:33:38;;;;;;;8.25;5.40;;;;;;;39.53;27.63;98240.31;4951605;29;20195;-58